Time;durP1;ratioP1;P1;durP2;ratioP2;P2;SDS_P1;SDS_P2;PMS_P1;PMS_P2;Temp;Humidity;BMP_temperature;BMP_pressure;BME280_temperature;BME280_humidity;BME280_pressure;Samples;Min_cycle;Max_cycle;Signal;HPM_P1;HPM_P2
2023/02/14 00:04:42;;;;;;;25.5;16.6;;;;;;;4.2;89.1;100550;;;;
2023/02/14 00:15:43;;;;;;;25.5;16.6;;;;;;;4.2;89.2;100550;;;;
2023/02/14 00:24:39;;;;;;;26.4;16.9;;;;;;;4.2;89.3;100540;;;;
2023/02/14 00:34:39;;;;;;;26.4;16.9;;;;;;;4.1;89.2;100540;;;;
2023/02/14 00:45:39;;;;;;;26.4;16.9;;;;;;;4;89.1;100540;;;;
2023/02/14 00:55:39;;;;;;;28.6;18.4;;;;;;;4;89;100540;;;;
2023/02/14 01:06:39;;;;;;;28.6;18.4;;;;;;;4;88.9;100540;;;;
2023/02/14 01:17:39;;;;;;;30.8;18.7;;;;;;;4;88.8;100530;;;;
2023/02/14 01:28:39;;;;;;;30.8;18.7;;;;;;;4;88.8;100520;;;;
2023/02/14 01:38:39;;;;;;;30.8;18.7;;;;;;;4;88.6;100530;;;;
2023/02/14 01:49:39;;;;;;;26.1;16.1;;;;;;;4;88.5;100530;;;;
2023/02/14 01:59:39;;;;;;;26.1;16.1;;;;;;;4;88.5;100520;;;;
2023/02/14 02:09:39;;;;;;;26.1;16.1;;;;;;;3.9;88.8;100520;;;;
2023/02/14 02:20:39;;;;;;;27.7;15.9;;;;;;;3.9;88.7;100510;;;;
2023/02/14 02:31:39;;;;;;;27.7;15.9;;;;;;;3.8;88.7;100520;;;;
2023/02/14 02:41:39;;;;;;;27.7;15.9;;;;;;;3.9;88.8;100520;;;;
2023/02/14 02:53:11;;;;;;;23.8;16.5;;;;;;;3.8;88.5;100520;;;;
2023/02/14 03:12:39;;;;;;;23.8;16.5;;;;;;;3.7;89.3;100520;;;;
2023/02/14 03:22:39;;;;;;;36.1;22.2;;;;;;;3.7;89.3;100520;;;;
2023/02/14 03:33:39;;;;;;;36.1;22.2;;;;;;;3.7;89.2;100530;;;;
2023/02/14 03:43:39;;;;;;;36.1;22.2;;;;;;;3.6;89.4;100530;;;;
2023/02/14 03:53:39;;;;;;;35.9;23.3;;;;;;;3.6;89.4;100530;;;;
2023/02/14 04:03:39;;;;;;;35.9;23.3;;;;;;;3.6;89.5;100540;;;;
2023/02/14 04:14:39;;;;;;;35.9;23.3;;;;;;;3.6;89.3;100540;;;;
2023/02/14 04:24:39;;;;;;;30.9;21.6;;;;;;;3.6;89.3;100540;;;;
2023/02/14 04:35:39;;;;;;;30.9;21.6;;;;;;;3.6;89;100550;;;;
2023/02/14 04:45:39;;;;;;;35.9;23.2;;;;;;;3.7;88.9;100550;;;;
2023/02/14 04:56:39;;;;;;;35.9;23.2;;;;;;;3.7;88.9;100550;;;;
2023/02/14 05:06:39;;;;;;;35.9;23.2;;;;;;;3.7;88.7;100560;;;;
2023/02/14 05:17:39;;;;;;;26.9;18.3;;;;;;;3.7;88.3;100550;;;;
2023/02/14 05:27:39;;;;;;;26.9;18.3;;;;;;;3.7;88.2;100550;;;;
2023/02/14 05:38:39;;;;;;;26.9;18.3;;;;;;;3.7;87.9;100550;;;;
2023/02/14 05:48:39;;;;;;;27.4;16.5;;;;;;;3.7;87.9;100560;;;;
2023/02/14 05:58:39;;;;;;;27.4;16.5;;;;;;;3.8;87.6;100560;;;;
2023/02/14 06:08:39;;;;;;;27.4;16.5;;;;;;;3.8;87.1;100570;;;;
2023/02/14 06:19:39;;;;;;;24.9;17.6;;;;;;;3.8;86.7;100570;;;;
2023/02/14 06:29:39;;;;;;;24.9;17.6;;;;;;;3.9;86.2;100580;;;;
2023/02/14 06:40:39;;;;;;;24.9;17.6;;;;;;;3.8;86.2;100570;;;;
2023/02/14 06:51:39;;;;;;;28;17.4;;;;;;;3.9;86.1;100570;;;;
2023/02/14 07:01:39;;;;;;;28;17.4;;;;;;;3.9;85.7;100570;;;;
2023/02/14 07:12:39;;;;;;;28;17.4;;;;;;;4;85.4;100570;;;;
2023/02/14 07:22:39;;;;;;;22.3;16.2;;;;;;;4;85.2;100580;;;;
2023/02/14 07:33:39;;;;;;;22.3;16.2;;;;;;;4.1;84.8;100590;;;;
2023/02/14 07:43:40;;;;;;;22.3;16.2;;;;;;;4.2;84.6;100600;;;;
2023/02/14 07:53:40;;;;;;;26.2;17.5;;;;;;;4.3;84.2;100600;;;;
2023/02/14 08:04:39;;;;;;;26.2;17.5;;;;;;;4.4;84.2;100600;;;;
2023/02/14 08:14:39;;;;;;;26.2;17.5;;;;;;;4.5;83.9;100600;;;;
2023/02/14 08:24:40;;;;;;;31.4;18.2;;;;;;;4.5;83.6;100610;;;;
2023/02/14 08:34:39;;;;;;;31.4;18.2;;;;;;;4.7;83.6;100610;;;;
2023/02/14 08:44:39;;;;;;;31.4;18.2;;;;;;;4.8;83.2;100620;;;;
2023/02/14 08:54:39;;;;;;;34.4;21.8;;;;;;;5;83.1;100620;;;;
2023/02/14 09:04:39;;;;;;;34.4;21.8;;;;;;;5.1;82.2;100620;;;;
2023/02/14 09:15:39;;;;;;;29.5;23;;;;;;;5.6;82.1;100630;;;;
2023/02/14 09:25:40;;;;;;;29.5;23;;;;;;;5.6;81.6;100630;;;;
2023/02/14 09:46:39;;;;;;;33.6;26.7;;;;;;;5.7;80.3;100640;;;;
2023/02/14 09:56:40;;;;;;;33.6;26.7;;;;;;;5.7;79.8;100650;;;;
2023/02/14 10:07:40;;;;;;;33.6;26.7;;;;;;;5.9;79.4;100640;;;;
2023/02/14 10:17:40;;;;;;;35.5;26.3;;;;;;;5.9;79;100640;;;;
2023/02/14 10:27:41;;;;;;;35.5;26.3;;;;;;;6;79.2;100630;;;;
2023/02/14 10:38:40;;;;;;;35.5;26.3;;;;;;;6.3;79;100630;;;;
2023/02/14 10:48:40;;;;;;;27.5;21.6;;;;;;;6.2;78;100620;;;;
2023/02/14 10:58:40;;;;;;;27.5;21.6;;;;;;;6.4;76.8;100620;;;;
2023/02/14 11:09:40;;;;;;;27.5;21.6;;;;;;;6.4;77.1;100610;;;;
2023/02/14 11:19:40;;;;;;;24.3;20.9;;;;;;;6.3;77.7;100600;;;;
2023/02/14 11:30:40;;;;;;;24.3;20.9;;;;;;;6.1;77.6;100590;;;;
2023/02/14 11:40:40;;;;;;;24.3;20.9;;;;;;;6.2;77.7;100590;;;;
2023/02/14 11:50:40;;;;;;;29.2;20.3;;;;;;;6.1;77.7;100580;;;;
2023/02/14 12:00:40;;;;;;;29.2;20.3;;;;;;;5.9;78.1;100570;;;;
2023/02/14 12:10:40;;;;;;;29.2;20.3;;;;;;;6.1;78.1;100570;;;;
2023/02/14 12:20:40;;;;;;;26;17.8;;;;;;;6.3;78;100560;;;;
2023/02/14 12:30:40;;;;;;;26;17.8;;;;;;;6.3;77.7;100550;;;;
2023/02/14 12:40:40;;;;;;;26;17.8;;;;;;;6.3;77.7;100540;;;;
2023/02/14 12:50:40;;;;;;;22.7;17.3;;;;;;;6.2;77.2;100530;;;;
2023/02/14 13:00:40;;;;;;;22.7;17.3;;;;;;;6.1;77.6;100520;;;;
2023/02/14 13:10:40;;;;;;;22.7;17.3;;;;;;;6.3;77.1;100520;;;;
2023/02/14 13:21:40;;;;;;;23.1;16.6;;;;;;;6.3;76.7;100510;;;;
2023/02/14 13:32:40;;;;;;;23.1;16.6;;;;;;;6.3;76.1;100510;;;;
2023/02/14 13:43:40;;;;;;;23.1;16.6;;;;;;;6.4;76.4;100510;;;;
2023/02/14 13:53:40;;;;;;;20.4;16.6;;;;;;;6.3;76.6;100500;;;;
2023/02/14 14:03:40;;;;;;;20.4;16.6;;;;;;;6.3;76.4;100500;;;;
2023/02/14 14:13:40;;;;;;;20.4;16.6;;;;;;;6.3;76.6;100490;;;;
2023/02/14 14:24:40;;;;;;;23.1;17.4;;;;;;;6.1;76.4;100510;;;;
2023/02/14 14:34:40;;;;;;;23.1;17.4;;;;;;;6;76.9;100500;;;;
2023/02/14 14:44:42;;;;;;;18.8;15.5;;;;;;;5.8;77.5;100510;;;;
2023/02/14 14:54:40;;;;;;;18.8;15.5;;;;;;;5.9;77.6;100510;;;;
2023/02/14 15:04:40;;;;;;;18.8;15.5;;;;;;;5.8;77.3;100500;;;;
2023/02/14 15:15:40;;;;;;;17.3;13.2;;;;;;;5.7;76.9;100500;;;;
2023/02/14 15:26:40;;;;;;;17.3;13.2;;;;;;;5.6;76.5;100500;;;;
2023/02/14 15:36:40;;;;;;;17.3;13.2;;;;;;;5.5;77.2;100510;;;;
2023/02/14 15:47:40;;;;;;;19.1;12.9;;;;;;;5.5;77.7;100530;;;;
2023/02/14 15:58:41;;;;;;;19.1;12.9;;;;;;;5.4;77.8;100530;;;;
2023/02/14 16:09:40;;;;;;;19.1;12.9;;;;;;;5.3;77.6;100540;;;;
2023/02/14 16:20:40;;;;;;;21.9;14.9;;;;;;;5.3;77.8;100550;;;;
2023/02/14 16:30:40;;;;;;;21.9;14.9;;;;;;;5.3;78.3;100560;;;;
2023/02/14 16:40:40;;;;;;;21.9;14.9;;;;;;;5.3;78.4;100560;;;;
2023/02/14 16:51:41;;;;;;;25.7;15.3;;;;;;;5.3;78.3;100560;;;;
2023/02/14 17:01:40;;;;;;;25.7;15.3;;;;;;;5.3;78.2;100560;;;;
2023/02/14 17:12:40;;;;;;;25.7;15.3;;;;;;;5.2;78.6;100560;;;;
2023/02/14 17:22:41;;;;;;;24.2;18.5;;;;;;;5.2;78.7;100560;;;;
2023/02/14 17:32:40;;;;;;;24.2;18.5;;;;;;;5.2;78.9;100570;;;;
2023/02/14 17:43:40;;;;;;;24.2;18.5;;;;;;;5.1;79.1;100570;;;;
2023/02/14 17:53:40;;;;;;;32.3;23.1;;;;;;;5.1;79;100570;;;;
2023/02/14 18:04:40;;;;;;;32.3;23.1;;;;;;;5.2;79.1;100570;;;;
2023/02/14 18:14:40;;;;;;;39.1;24.8;;;;;;;5.1;79.3;100580;;;;
2023/02/14 18:24:40;;;;;;;39.1;24.8;;;;;;;5.1;79.3;100570;;;;
2023/02/14 18:35:40;;;;;;;39.1;24.8;;;;;;;5.1;79.2;100570;;;;
2023/02/14 18:46:40;;;;;;;36.1;26.8;;;;;;;5;79.3;100570;;;;
2023/02/14 18:57:40;;;;;;;36.1;26.8;;;;;;;5.1;79.3;100560;;;;
2023/02/14 19:07:40;;;;;;;36.1;26.8;;;;;;;5;79.5;100560;;;;
2023/02/14 19:18:40;;;;;;;36.6;27.9;;;;;;;5;79.9;100560;;;;
2023/02/14 19:28:40;;;;;;;36.6;27.9;;;;;;;5;79.9;100560;;;;
2023/02/14 19:39:40;;;;;;;36.6;27.9;;;;;;;5;79.8;100560;;;;
2023/02/14 19:49:40;;;;;;;46.8;33;;;;;;;5;80.1;100560;;;;
2023/02/14 20:00:40;;;;;;;46.8;33;;;;;;;5;80;100560;;;;
2023/02/14 20:11:45;;;;;;;46.8;33;;;;;;;5;80.1;100560;;;;
2023/02/14 20:22:40;;;;;;;45.1;32;;;;;;;5;80;100560;;;;
2023/02/14 20:32:40;;;;;;;45.1;32;;;;;;;5;79.9;100550;;;;
2023/02/14 20:42:40;;;;;;;45.1;32;;;;;;;4.9;80;100550;;;;
2023/02/14 20:53:40;;;;;;;61.8;40.4;;;;;;;4.9;80.2;100550;;;;
2023/02/14 21:04:40;;;;;;;61.8;40.4;;;;;;;4.8;80.3;100550;;;;
2023/02/14 21:14:40;;;;;;;50.7;35.2;;;;;;;4.9;80.2;100550;;;;
2023/02/14 21:24:40;;;;;;;50.7;35.2;;;;;;;4.8;80.3;100540;;;;
2023/02/14 21:34:40;;;;;;;50.7;35.2;;;;;;;4.8;80.4;100550;;;;
2023/02/14 21:55:41;;;;;;;49.1;34.7;;;;;;;4.8;80.3;100540;;;;
2023/02/14 22:06:40;;;;;;;49.1;34.7;;;;;;;4.7;80.5;100540;;;;
2023/02/14 22:16:40;;;;;;;50.7;36.1;;;;;;;4.7;80.4;100530;;;;
2023/02/14 22:26:40;;;;;;;50.7;36.1;;;;;;;4.7;80.3;100520;;;;
2023/02/14 22:36:40;;;;;;;50.7;36.1;;;;;;;4.6;80.4;100520;;;;
2023/02/14 22:46:40;;;;;;;47;36.3;;;;;;;4.6;80.9;100510;;;;
2023/02/14 22:56:40;;;;;;;47;36.3;;;;;;;4.5;80.9;100510;;;;
2023/02/14 23:06:40;;;;;;;47;36.3;;;;;;;4.4;81.1;100510;;;;
2023/02/14 23:27:40;;;;;;;53.2;34.5;;;;;;;4.4;81.5;100500;;;;
2023/02/14 23:37:40;;;;;;;53.2;34.5;;;;;;;4.2;81.9;100500;;;;
2023/02/14 23:48:40;;;;;;;48.1;33.7;;;;;;;4.3;82;100490;;;;
2023/02/14 23:58:40;;;;;;;48.1;33.7;;;;;;;4.3;81.7;100470;;;;
